Back to Top

Language: 

My Weather Underground Personal Weather Station Historical Data with Graphs...

Delerius Weather Station Historical Data
Daily Summary for March 15, 2017 Units:  Both    English   Metric
« Previous Day
Next Day »
Daily Weekly Monthly Yearly Custom
  High: Low: Average:
Temperature: 61.7 °F /  16.5 °C 45.7 °F /  7.6 °C 52.6 °F /  11.4 °C
Dew Point: 46.1 °F /  7.8 °C 39.1 °F /  3.9 °C 42.4 °F /  5.8 °C
Humidity: 84 % 51 % 69 %
Wind Speed: 10.0 mph /  16.1 km/h - 4.5 mph /  7.2 km/h
Wind Gust: 20.0 mph /  32.2 km/h - -
Wind:- - West
Pressure: 30.49 in /  1032.4 hPa 30.29 in /  1025.6 hPa -
Precipitation: 0.00 in /  0 mm    
Historical Graphs
 
 
Tabular Data for March 15, 2017
Time Temperature Dew Point Pressure Wind Wind Speed Wind Gust Humidity Rainfall Rate (Hourly) solar Conditions
00:04 50.0 °F /  10 °C 42.7 °F /  5.9 °C 30.45 in /  1031 hPa West 9.0 mph /  14.5 km/h 16.0 mph /  25.7 km/h 76 % 0.00 in /  0 mm 0 W/m2
00:09 49.8 °F /  9.9 °C 42.6 °F /  5.9 °C 30.46 in /  1031.4 hPa West 9.0 mph /  14.5 km/h 16.0 mph /  25.7 km/h 76 % 0.00 in /  0 mm 0 W/m2
00:14 49.8 °F /  9.9 °C 42.2 °F /  5.7 °C 30.45 in /  1031 hPa West 9.0 mph /  14.5 km/h 14.0 mph /  22.5 km/h 75 % 0.00 in /  0 mm 0 W/m2
00:19 49.8 °F /  9.9 °C 42.2 °F /  5.7 °C 30.45 in /  1031 hPa West 8.0 mph /  12.9 km/h 14.0 mph /  22.5 km/h 75 % 0.00 in /  0 mm 0 W/m2
00:24 49.8 °F /  9.9 °C 41.9 °F /  5.5 °C 30.46 in /  1031.4 hPa WNW 7.0 mph /  11.3 km/h 12.0 mph /  19.3 km/h 74 % 0.00 in /  0 mm 0 W/m2
00:29 49.8 °F /  9.9 °C 41.9 °F /  5.5 °C 30.46 in /  1031.4 hPa WNW 7.0 mph /  11.3 km/h 12.0 mph /  19.3 km/h 74 % 0.00 in /  0 mm 0 W/m2
00:34 49.6 °F /  9.8 °C 41.3 °F /  5.2 °C 30.46 in /  1031.4 hPa WNW 8.0 mph /  12.9 km/h 13.0 mph /  20.9 km/h 73 % 0.00 in /  0 mm 0 W/m2
00:39 49.6 °F /  9.8 °C 41.3 °F /  5.2 °C 30.46 in /  1031.4 hPa WNW 9.0 mph /  14.5 km/h 13.0 mph /  20.9 km/h 73 % 0.00 in /  0 mm 0 W/m2
00:44 49.6 °F /  9.8 °C 41.3 °F /  5.2 °C 30.46 in /  1031.4 hPa WNW 9.0 mph /  14.5 km/h 13.0 mph /  20.9 km/h 73 % 0.00 in /  0 mm 0 W/m2
00:49 49.6 °F /  9.8 °C 41.3 °F /  5.2 °C 30.46 in /  1031.4 hPa WNW 9.0 mph /  14.5 km/h 16.0 mph /  25.7 km/h 73 % 0.00 in /  0 mm 0 W/m2
00:54 49.6 °F /  9.8 °C 41.3 °F /  5.2 °C 30.46 in /  1031.4 hPa WNW 10.0 mph /  16.1 km/h 18.0 mph /  29 km/h 73 % 0.00 in /  0 mm 0 W/m2
00:59 49.6 °F /  9.8 °C 41.3 °F /  5.2 °C 30.46 in /  1031.4 hPa WNW 10.0 mph /  16.1 km/h 20.0 mph /  32.2 km/h 73 % 0.00 in /  0 mm 0 W/m2
01:04 49.6 °F /  9.8 °C 41.7 °F /  5.4 °C 30.46 in /  1031.4 hPa WNW 9.0 mph /  14.5 km/h 20.0 mph /  32.2 km/h 74 % 0.00 in /  0 mm 0 W/m2
01:09 49.6 °F /  9.8 °C 41.7 °F /  5.4 °C 30.47 in /  1031.7 hPa WNW 8.0 mph /  12.9 km/h 15.0 mph /  24.1 km/h 74 % 0.00 in /  0 mm 0 W/m2
01:14 49.5 °F /  9.7 °C 41.5 °F /  5.3 °C 30.46 in /  1031.4 hPa WNW 8.0 mph /  12.9 km/h 15.0 mph /  24.1 km/h 74 % 0.00 in /  0 mm 0 W/m2
01:19 49.5 °F /  9.7 °C 41.5 °F /  5.3 °C 30.46 in /  1031.4 hPa WNW 8.0 mph /  12.9 km/h 16.0 mph /  25.7 km/h 74 % 0.00 in /  0 mm 0 W/m2
01:24 49.3 °F /  9.6 °C 41.3 °F /  5.2 °C 30.47 in /  1031.7 hPa WNW 9.0 mph /  14.5 km/h 18.0 mph /  29 km/h 74 % 0.00 in /  0 mm 0 W/m2
01:29 49.3 °F /  9.6 °C 41.3 °F /  5.2 °C 30.47 in /  1031.7 hPa WNW 8.0 mph /  12.9 km/h 18.0 mph /  29 km/h 74 % 0.00 in /  0 mm 0 W/m2
01:34 49.1 °F /  9.5 °C 40.8 °F /  4.9 °C 30.46 in /  1031.4 hPa WNW 7.0 mph /  11.3 km/h 12.0 mph /  19.3 km/h 73 % 0.00 in /  0 mm 0 W/m2
01:39 49.1 °F /  9.5 °C 40.8 °F /  4.9 °C 30.47 in /  1031.7 hPa WNW 9.0 mph /  14.5 km/h 18.0 mph /  29 km/h 73 % 0.00 in /  0 mm 0 W/m2
01:44 49.1 °F /  9.5 °C 40.8 °F /  4.9 °C 30.47 in /  1031.7 hPa WNW 8.0 mph /  12.9 km/h 18.0 mph /  29 km/h 73 % 0.00 in /  0 mm 0 W/m2
01:49 48.9 °F /  9.4 °C 40.6 °F /  4.8 °C 30.46 in /  1031.4 hPa WNW 6.0 mph /  9.7 km/h 14.0 mph /  22.5 km/h 73 % 0.00 in /  0 mm 0 W/m2
01:54 48.9 °F /  9.4 °C 40.6 °F /  4.8 °C 30.46 in /  1031.4 hPa WNW 6.0 mph /  9.7 km/h 12.0 mph /  19.3 km/h 73 % 0.00 in /  0 mm 0 W/m2
01:59 48.7 °F /  9.3 °C 40.1 °F /  4.5 °C 30.46 in /  1031.4 hPa WNW 6.0 mph /  9.7 km/h 11.0 mph /  17.7 km/h 72 % 0.00 in /  0 mm 0 W/m2
02:04 48.7 °F /  9.3 °C 40.1 °F /  4.5 °C 30.46 in /  1031.4 hPa WNW 6.0 mph /  9.7 km/h 10.0 mph /  16.1 km/h 72 % 0.00 in /  0 mm 0 W/m2
02:05 48.7 °F /  9.3 °C 40.1 °F /  4.5 °C 30.46 in /  1031.4 hPa WNW 5.0 mph /  8 km/h 10.0 mph /  16.1 km/h 72 % 0.00 in /  0 mm 0 W/m2
02:10 48.6 °F /  9.2 °C 39.9 °F /  4.4 °C 30.46 in /  1031.4 hPa WNW 5.0 mph /  8 km/h 10.0 mph /  16.1 km/h 72 % 0.00 in /  0 mm 0 W/m2
02:15 48.6 °F /  9.2 °C 39.9 °F /  4.4 °C 30.46 in /  1031.4 hPa WNW 4.0 mph /  6.4 km/h 9.0 mph /  14.5 km/h 72 % 0.00 in /  0 mm 0 W/m2
02:20 48.6 °F /  9.2 °C 39.9 °F /  4.4 °C 30.46 in /  1031.4 hPa WNW 4.0 mph /  6.4 km/h 10.0 mph /  16.1 km/h 72 % 0.00 in /  0 mm 0 W/m2
02:25 48.4 °F /  9.1 °C 39.8 °F /  4.3 °C 30.46 in /  1031.4 hPa WNW 2.0 mph /  3.2 km/h 10.0 mph /  16.1 km/h 72 % 0.00 in /  0 mm 0 W/m2
02:30 48.4 °F /  9.1 °C 39.8 °F /  4.3 °C 30.46 in /  1031.4 hPa WNW 3.0 mph /  4.8 km/h 8.0 mph /  12.9 km/h 72 % 0.00 in /  0 mm 0 W/m2
02:35 48.4 °F /  9.1 °C 39.8 °F /  4.3 °C 30.46 in /  1031.4 hPa WNW 5.0 mph /  8 km/h 12.0 mph /  19.3 km/h 72 % 0.00 in /  0 mm 0 W/m2
02:40 48.4 °F /  9.1 °C 39.8 °F /  4.3 °C 30.46 in /  1031.4 hPa WNW 5.0 mph /  8 km/h 12.0 mph /  19.3 km/h 72 % 0.00 in /  0 mm 0 W/m2
02:45 48.2 °F /  9 °C 39.9 °F /  4.4 °C 30.46 in /  1031.4 hPa NW 3.0 mph /  4.8 km/h 12.0 mph /  19.3 km/h 73 % 0.00 in /  0 mm 0 W/m2
02:50 48.0 °F /  8.9 °C 39.8 °F /  4.3 °C 30.46 in /  1031.4 hPa NW 1.0 mph /  1.6 km/h 4.0 mph /  6.4 km/h 73 % 0.00 in /  0 mm 0 W/m2
02:55 48.0 °F /  8.9 °C 39.8 °F /  4.3 °C 30.46 in /  1031.4 hPa Calm   2.0 mph /  3.2 km/h 73 % 0.00 in /  0 mm 0 W/m2
03:00 47.8 °F /  8.8 °C 40.0 °F /  4.4 °C 30.46 in /  1031.4 hPa NW 1.0 mph /  1.6 km/h 6.0 mph /  9.7 km/h 74 % 0.00 in /  0 mm 0 W/m2
03:05 47.7 °F /  8.7 °C 39.8 °F /  4.3 °C 30.46 in /  1031.4 hPa NW 2.0 mph /  3.2 km/h 8.0 mph /  12.9 km/h 74 % 0.00 in /  0 mm 0 W/m2
03:10 47.7 °F /  8.7 °C 39.8 °F /  4.3 °C 30.46 in /  1031.4 hPa NW 2.0 mph /  3.2 km/h 8.0 mph /  12.9 km/h 74 % 0.00 in /  0 mm 0 W/m2
03:15 47.5 °F /  8.6 °C 39.9 °F /  4.4 °C 30.47 in /  1031.7 hPa NW 1.0 mph /  1.6 km/h 8.0 mph /  12.9 km/h 75 % 0.00 in /  0 mm 0 W/m2
03:20 47.3 °F /  8.5 °C 39.8 °F /  4.3 °C 30.47 in /  1031.7 hPa NW 1.0 mph /  1.6 km/h 5.0 mph /  8 km/h 75 % 0.00 in /  0 mm 0 W/m2
03:25 47.1 °F /  8.4 °C 39.6 °F /  4.2 °C 30.47 in /  1031.7 hPa NW 1.0 mph /  1.6 km/h 5.0 mph /  8 km/h 75 % 0.00 in /  0 mm 0 W/m2
03:30 46.9 °F /  8.3 °C 39.4 °F /  4.1 °C 30.47 in /  1031.7 hPa NW 1.0 mph /  1.6 km/h 4.0 mph /  6.4 km/h 75 % 0.00 in /  0 mm 0 W/m2
03:31 46.9 °F /  8.3 °C 39.4 °F /  4.1 °C 30.47 in /  1031.7 hPa NW 1.0 mph /  1.6 km/h 4.0 mph /  6.4 km/h 75 % 0.00 in /  0 mm 0 W/m2
03:36 46.9 °F /  8.3 °C 39.8 °F /  4.3 °C 30.47 in /  1031.7 hPa NW 1.0 mph /  1.6 km/h 4.0 mph /  6.4 km/h 76 % 0.00 in /  0 mm 0 W/m2
03:41 46.8 °F /  8.2 °C 39.6 °F /  4.2 °C 30.47 in /  1031.7 hPa NNW 1.0 mph /  1.6 km/h 6.0 mph /  9.7 km/h 76 % 0.00 in /  0 mm 0 W/m2
03:46 46.6 °F /  8.1 °C 39.4 °F /  4.1 °C 30.47 in /  1031.7 hPa NNW 1.0 mph /  1.6 km/h 6.0 mph /  9.7 km/h 76 % 0.00 in /  0 mm 0 W/m2
03:51 46.6 °F /  8.1 °C 39.4 °F /  4.1 °C 30.47 in /  1031.7 hPa Calm   2.0 mph /  3.2 km/h 76 % 0.00 in /  0 mm 0 W/m2
03:56 46.4 °F /  8 °C 39.2 °F /  4 °C 30.47 in /  1031.7 hPa NW 1.0 mph /  1.6 km/h 7.0 mph /  11.3 km/h 76 % 0.00 in /  0 mm 0 W/m2
04:01 46.2 °F /  7.9 °C 39.1 °F /  3.9 °C 30.47 in /  1031.7 hPa NW 2.0 mph /  3.2 km/h 7.0 mph /  11.3 km/h 76 % 0.00 in /  0 mm 0 W/m2
04:06 46.2 °F /  7.9 °C 39.1 °F /  3.9 °C 30.47 in /  1031.7 hPa WNW 1.0 mph /  1.6 km/h 4.0 mph /  6.4 km/h 76 % 0.00 in /  0 mm 0 W/m2
04:11 46.0 °F /  7.8 °C 39.2 °F /  4 °C 30.47 in /  1031.7 hPa WNW 1.0 mph /  1.6 km/h 5.0 mph /  8 km/h 77 % 0.00 in /  0 mm 0 W/m2
04:16 45.9 °F /  7.7 °C 39.1 °F /  3.9 °C 30.47 in /  1031.7 hPa Calm   5.0 mph /  8 km/h 77 % 0.00 in /  0 mm 0 W/m2
04:21 45.7 °F /  7.6 °C 39.2 °F /  4 °C 30.47 in /  1031.7 hPa WNW 1.0 mph /  1.6 km/h 7.0 mph /  11.3 km/h 78 % 0.00 in /  0 mm 0 W/m2
04:26 45.7 °F /  7.6 °C 39.2 °F /  4 °C 30.47 in /  1031.7 hPa WNW 2.0 mph /  3.2 km/h 8.0 mph /  12.9 km/h 78 % 0.00 in /  0 mm 0 W/m2
04:31 45.9 °F /  7.7 °C 39.4 °F /  4.1 °C 30.47 in /  1031.7 hPa WNW 3.0 mph /  4.8 km/h 8.0 mph /  12.9 km/h 78 % 0.00 in /  0 mm 0 W/m2
04:36 45.9 °F /  7.7 °C 39.4 °F /  4.1 °C 30.47 in /  1031.7 hPa West 4.0 mph /  6.4 km/h 6.0 mph /  9.7 km/h 78 % 0.00 in /  0 mm 0 W/m2
04:41 45.9 °F /  7.7 °C 39.4 °F /  4.1 °C 30.47 in /  1031.7 hPa West 4.0 mph /  6.4 km/h 7.0 mph /  11.3 km/h 78 % 0.00 in /  0 mm 0 W/m2
04:46 45.7 °F /  7.6 °C 39.2 °F /  4 °C 30.47 in /  1031.7 hPa WNW 5.0 mph /  8 km/h 8.0 mph /  12.9 km/h 78 % 0.00 in /  0 mm 0 W/m2
04:51 45.7 °F /  7.6 °C 39.2 °F /  4 °C 30.47 in /  1031.7 hPa WNW 6.0 mph /  9.7 km/h 8.0 mph /  12.9 km/h 78 % 0.00 in /  0 mm 0 W/m2
04:56 45.7 °F /  7.6 °C 39.2 °F /  4 °C 30.47 in /  1031.7 hPa WNW 7.0 mph /  11.3 km/h 9.0 mph /  14.5 km/h 78 % 0.00 in /  0 mm 0 W/m2
05:01 45.7 °F /  7.6 °C 39.2 °F /  4 °C 30.47 in /  1031.7 hPa WNW 7.0 mph /  11.3 km/h 10.0 mph /  16.1 km/h 78 % 0.00 in /  0 mm 0 W/m2
05:02 45.7 °F /  7.6 °C 39.2 °F /  4 °C 30.47 in /  1031.7 hPa WNW 7.0 mph /  11.3 km/h 10.0 mph /  16.1 km/h 78 % 0.00 in /  0 mm 0 W/m2
05:07 45.7 °F /  7.6 °C 39.2 °F /  4 °C 30.47 in /  1031.7 hPa NW 7.0 mph /  11.3 km/h 11.0 mph /  17.7 km/h 78 % 0.00 in /  0 mm 0 W/m2
05:12 45.7 °F /  7.6 °C 39.2 °F /  4 °C 30.47 in /  1031.7 hPa NW 7.0 mph /  11.3 km/h 11.0 mph /  17.7 km/h 78 % 0.00 in /  0 mm 0 W/m2
05:17 45.9 °F /  7.7 °C 39.4 °F /  4.1 °C 30.47 in /  1031.7 hPa WNW 7.0 mph /  11.3 km/h 11.0 mph /  17.7 km/h 78 % 0.00 in /  0 mm 0 W/m2
05:22 45.9 °F /  7.7 °C 39.4 °F /  4.1 °C 30.47 in /  1031.7 hPa WNW 7.0 mph /  11.3 km/h 11.0 mph /  17.7 km/h 78 % 0.00 in /  0 mm 0 W/m2
05:27 46.0 °F /  7.8 °C 39.2 °F /  4 °C 30.47 in /  1031.7 hPa WNW 7.0 mph /  11.3 km/h 12.0 mph /  19.3 km/h 77 % 0.00 in /  0 mm 0 W/m2
05:32 46.0 °F /  7.8 °C 39.2 °F /  4 °C 30.47 in /  1031.7 hPa West 6.0 mph /  9.7 km/h 12.0 mph /  19.3 km/h 77 % 0.00 in /  0 mm 0 W/m2
05:37 46.0 °F /  7.8 °C 39.2 °F /  4 °C 30.47 in /  1031.7 hPa WSW 5.0 mph /  8 km/h 12.0 mph /  19.3 km/h 77 % 0.00 in /  0 mm 0 W/m2
05:42 46.0 °F /  7.8 °C 39.2 °F /  4 °C 30.47 in /  1031.7 hPa SW 4.0 mph /  6.4 km/h 7.0 mph /  11.3 km/h 77 % 0.00 in /  0 mm 0 W/m2
05:47 46.0 °F /  7.8 °C 39.2 °F /  4 °C 30.47 in /  1031.7 hPa SW 3.0 mph /  4.8 km/h 7.0 mph /  11.3 km/h 77 % 0.00 in /  0 mm 0 W/m2
05:52 46.2 °F /  7.9 °C 39.4 °F /  4.1 °C 30.47 in /  1031.7 hPa SSW 4.0 mph /  6.4 km/h 8.0 mph /  12.9 km/h 77 % 0.00 in /  0 mm 0 W/m2
05:57 46.4 °F /  8 °C 39.2 °F /  4 °C 30.47 in /  1031.7 hPa SW 5.0 mph /  8 km/h 10.0 mph /  16.1 km/h 76 % 0.00 in /  0 mm 0 W/m2
06:02 46.4 °F /  8 °C 39.6 °F /  4.2 °C 30.47 in /  1031.7 hPa SW 5.0 mph /  8 km/h 10.0 mph /  16.1 km/h 77 % 0.00 in /  0 mm 0 W/m2
06:07 46.6 °F /  8.1 °C 39.8 °F /  4.3 °C 30.48 in /  1032.1 hPa WSW 4.0 mph /  6.4 km/h 9.0 mph /  14.5 km/h 77 % 0.00 in /  0 mm 0 W/m2
06:12 46.4 °F /  8 °C 39.6 °F /  4.2 °C 30.47 in /  1031.7 hPa West 4.0 mph /  6.4 km/h 9.0 mph /  14.5 km/h 77 % 0.00 in /  0 mm 0 W/m2
06:17 46.4 °F /  8 °C 39.6 °F /  4.2 °C 30.48 in /  1032.1 hPa West 4.0 mph /  6.4 km/h 9.0 mph /  14.5 km/h 77 % 0.00 in /  0 mm 0 W/m2
06:22 46.4 °F /  8 °C 39.6 °F /  4.2 °C 30.48 in /  1032.1 hPa West 3.0 mph /  4.8 km/h 8.0 mph /  12.9 km/h 77 % 0.00 in /  0 mm 0 W/m2
06:27 46.2 °F /  7.9 °C 39.4 °F /  4.1 °C 30.48 in /  1032.1 hPa West 1.0 mph /  1.6 km/h 6.0 mph /  9.7 km/h 77 % 0.00 in /  0 mm 0 W/m2
06:32 46.2 °F /  7.9 °C 39.7 °F /  4.3 °C 30.48 in /  1032.1 hPa WSW 1.0 mph /  1.6 km/h 6.0 mph /  9.7 km/h 78 % 0.00 in /  0 mm 5 W/m2
06:37 46.2 °F /  7.9 °C 39.7 °F /  4.3 °C 30.48 in /  1032.1 hPa SW 1.0 mph /  1.6 km/h 6.0 mph /  9.7 km/h 78 % 0.00 in /  0 mm 7 W/m2
06:42 46.2 °F /  7.9 °C 39.7 °F /  4.3 °C 30.48 in /  1032.1 hPa SW 2.0 mph /  3.2 km/h 5.0 mph /  8 km/h 78 % 0.00 in /  0 mm 11 W/m2
06:47 46.0 °F /  7.8 °C 39.6 °F /  4.2 °C 30.48 in /  1032.1 hPa WSW 2.0 mph /  3.2 km/h 5.0 mph /  8 km/h 78 % 0.00 in /  0 mm 14 W/m2
06:52 46.0 °F /  7.8 °C 39.9 °F /  4.4 °C 30.49 in /  1032.4 hPa West 3.0 mph /  4.8 km/h 6.0 mph /  9.7 km/h 79 % 0.00 in /  0 mm 18 W/m2
06:58 46.0 °F /  7.8 °C 39.9 °F /  4.4 °C 30.49 in /  1032.4 hPa West 3.0 mph /  4.8 km/h 6.0 mph /  9.7 km/h 79 % 0.00 in /  0 mm 23 W/m2
07:03 46.0 °F /  7.8 °C 39.9 °F /  4.4 °C 30.49 in /  1032.4 hPa West 3.0 mph /  4.8 km/h 6.0 mph /  9.7 km/h 79 % 0.00 in /  0 mm 26 W/m2
07:08 46.0 °F /  7.8 °C 39.9 °F /  4.4 °C 30.49 in /  1032.4 hPa West 1.0 mph /  1.6 km/h 5.0 mph /  8 km/h 79 % 0.00 in /  0 mm 35 W/m2
07:13 46.0 °F /  7.8 °C 40.2 °F /  4.6 °C 30.49 in /  1032.4 hPa Calm   2.0 mph /  3.2 km/h 80 % 0.00 in /  0 mm 39 W/m2
07:18 46.0 °F /  7.8 °C 40.2 °F /  4.6 °C 30.49 in /  1032.4 hPa Calm   4.0 mph /  6.4 km/h 80 % 0.00 in /  0 mm 42 W/m2
07:23 46.2 °F /  7.9 °C 40.4 °F /  4.7 °C 30.49 in /  1032.4 hPa South 1.0 mph /  1.6 km/h 4.0 mph /  6.4 km/h 80 % 0.00 in /  0 mm 51 W/m2
07:28 46.2 °F /  7.9 °C 40.4 °F /  4.7 °C 30.49 in /  1032.4 hPa Calm   1.0 mph /  1.6 km/h 80 % 0.00 in /  0 mm 65 W/m2
07:33 46.2 °F /  7.9 °C 40.4 °F /  4.7 °C 30.49 in /  1032.4 hPa Calm   2.0 mph /  3.2 km/h 80 % 0.00 in /  0 mm 76 W/m2
07:38 46.4 °F /  8 °C 40.6 °F /  4.8 °C 30.49 in /  1032.4 hPa Calm   2.0 mph /  3.2 km/h 80 % 0.00 in /  0 mm 91 W/m2
07:43 46.6 °F /  8.1 °C 40.7 °F /  4.8 °C 30.49 in /  1032.4 hPa Calm   2.0 mph /  3.2 km/h 80 % 0.00 in /  0 mm 120 W/m2
07:48 46.6 °F /  8.1 °C 40.7 °F /  4.8 °C 30.49 in /  1032.4 hPa Calm   3.0 mph /  4.8 km/h 80 % 0.00 in /  0 mm 128 W/m2
07:53 46.9 °F /  8.3 °C 41.1 °F /  5.1 °C 30.49 in /  1032.4 hPa ENE 1.0 mph /  1.6 km/h 6.0 mph /  9.7 km/h 80 % 0.00 in /  0 mm 137 W/m2
07:58 47.1 °F /  8.4 °C 41.3 °F /  5.2 °C 30.49 in /  1032.4 hPa WSW 3.0 mph /  4.8 km/h 6.0 mph /  9.7 km/h 80 % 0.00 in /  0 mm 118 W/m2
08:03 47.5 °F /  8.6 °C 41.3 °F /  5.2 °C 30.49 in /  1032.4 hPa WSW 3.0 mph /  4.8 km/h 6.0 mph /  9.7 km/h 79 % 0.00 in /  0 mm 111 W/m2
08:08 47.7 °F /  8.7 °C 41.5 °F /  5.3 °C 30.49 in /  1032.4 hPa WSW 2.0 mph /  3.2 km/h 5.0 mph /  8 km/h 79 % 0.00 in /  0 mm 162 W/m2
08:13 47.8 °F /  8.8 °C 41.3 °F /  5.2 °C 30.49 in /  1032.4 hPa WSW 1.0 mph /  1.6 km/h 5.0 mph /  8 km/h 78 % 0.00 in /  0 mm 295 W/m2
08:18 48.4 °F /  9.1 °C 41.8 °F /  5.4 °C 30.48 in /  1032.1 hPa SW 3.0 mph /  4.8 km/h 6.0 mph /  9.7 km/h 78 % 0.00 in /  0 mm 294 W/m2
08:23 48.9 °F /  9.4 °C 41.0 °F /  5 °C 30.48 in /  1032.1 hPa SW 4.0 mph /  6.4 km/h 10.0 mph /  16.1 km/h 74 % 0.00 in /  0 mm 281 W/m2
08:28 49.5 °F /  9.7 °C 40.8 °F /  4.9 °C 30.48 in /  1032.1 hPa SW 5.0 mph /  8 km/h 10.0 mph /  16.1 km/h 72 % 0.00 in /  0 mm 169 W/m2
08:33 49.6 °F /  9.8 °C 40.6 °F /  4.8 °C 30.49 in /  1032.4 hPa SW 4.0 mph /  6.4 km/h 8.0 mph /  12.9 km/h 71 % 0.00 in /  0 mm 160 W/m2
08:38 50.0 °F /  10 °C 41.0 °F /  5 °C 30.49 in /  1032.4 hPa SSW 2.0 mph /  3.2 km/h 7.0 mph /  11.3 km/h 71 % 0.00 in /  0 mm 167 W/m2
08:43 50.2 °F /  10.1 °C 40.4 °F /  4.7 °C 30.49 in /  1032.4 hPa South 1.0 mph /  1.6 km/h 4.0 mph /  6.4 km/h 69 % 0.00 in /  0 mm 202 W/m2
08:48 50.4 °F /  10.2 °C 40.6 °F /  4.8 °C 30.49 in /  1032.4 hPa SW 2.0 mph /  3.2 km/h 6.0 mph /  9.7 km/h 69 % 0.00 in /  0 mm 199 W/m2
08:53 50.5 °F /  10.3 °C 40.4 °F /  4.7 °C 30.49 in /  1032.4 hPa WSW 3.0 mph /  4.8 km/h 7.0 mph /  11.3 km/h 68 % 0.00 in /  0 mm 144 W/m2
08:58 50.5 °F /  10.3 °C 40.7 °F /  4.8 °C 30.49 in /  1032.4 hPa WSW 3.0 mph /  4.8 km/h 7.0 mph /  11.3 km/h 69 % 0.00 in /  0 mm 190 W/m2
09:03 50.9 °F /  10.5 °C 41.1 °F /  5.1 °C 30.49 in /  1032.4 hPa WSW 2.0 mph /  3.2 km/h 6.0 mph /  9.7 km/h 69 % 0.00 in /  0 mm 408 W/m2
09:08 51.4 °F /  10.8 °C 41.2 °F /  5.1 °C 30.49 in /  1032.4 hPa West 2.0 mph /  3.2 km/h 6.0 mph /  9.7 km/h 68 % 0.00 in /  0 mm 417 W/m2
09:13 52.2 °F /  11.2 °C 41.5 °F /  5.3 °C 30.49 in /  1032.4 hPa West 2.0 mph /  3.2 km/h 5.0 mph /  8 km/h 67 % 0.00 in /  0 mm 476 W/m2
09:18 52.7 °F /  11.5 °C 41.7 °F /  5.4 °C 30.48 in /  1032.1 hPa WSW 3.0 mph /  4.8 km/h 6.0 mph /  9.7 km/h 66 % 0.00 in /  0 mm 543 W/m2
09:23 53.1 °F /  11.7 °C 41.6 °F /  5.3 °C 30.49 in /  1032.4 hPa SW 3.0 mph /  4.8 km/h 6.0 mph /  9.7 km/h 65 % 0.00 in /  0 mm 366 W/m2
09:28 53.2 °F /  11.8 °C 41.4 °F /  5.2 °C 30.49 in /  1032.4 hPa SSW 2.0 mph /  3.2 km/h 5.0 mph /  8 km/h 64 % 0.00 in /  0 mm 179 W/m2
09:33 53.2 °F /  11.8 °C 41.0 °F /  5 °C 30.49 in /  1032.4 hPa SSW 1.0 mph /  1.6 km/h 5.0 mph /  8 km/h 63 % 0.00 in /  0 mm 239 W/m2
09:38 53.2 °F /  11.8 °C 41.4 °F /  5.2 °C 30.49 in /  1032.4 hPa SSW 1.0 mph /  1.6 km/h 5.0 mph /  8 km/h 64 % 0.00 in /  0 mm 413 W/m2
09:43 53.2 °F /  11.8 °C 41.4 °F /  5.2 °C 30.49 in /  1032.4 hPa SSW 3.0 mph /  4.8 km/h 6.0 mph /  9.7 km/h 64 % 0.00 in /  0 mm 227 W/m2
09:48 53.1 °F /  11.7 °C 41.2 °F /  5.1 °C 30.49 in /  1032.4 hPa SSW 3.0 mph /  4.8 km/h 6.0 mph /  9.7 km/h 64 % 0.00 in /  0 mm 236 W/m2
09:53 52.9 °F /  11.6 °C 41.4 °F /  5.2 °C 30.49 in /  1032.4 hPa South 3.0 mph /  4.8 km/h 6.0 mph /  9.7 km/h 65 % 0.00 in /  0 mm 220 W/m2
09:58 52.9 °F /  11.6 °C 41.4 °F /  5.2 °C 30.49 in /  1032.4 hPa South 2.0 mph /  3.2 km/h 6.0 mph /  9.7 km/h 65 % 0.00 in /  0 mm 207 W/m2
10:03 53.1 °F /  11.7 °C 41.6 °F /  5.3 °C 30.49 in /  1032.4 hPa South 1.0 mph /  1.6 km/h 4.0 mph /  6.4 km/h 65 % 0.00 in /  0 mm 251 W/m2
10:08 53.2 °F /  11.8 °C 41.8 °F /  5.4 °C 30.49 in /  1032.4 hPa South 1.0 mph /  1.6 km/h 4.0 mph /  6.4 km/h 65 % 0.00 in /  0 mm 197 W/m2
10:13 53.4 °F /  11.9 °C 41.5 °F /  5.3 °C 30.49 in /  1032.4 hPa SSE 1.0 mph /  1.6 km/h 5.0 mph /  8 km/h 64 % 0.00 in /  0 mm 225 W/m2
10:18 53.6 °F /  12 °C 42.1 °F /  5.6 °C 30.49 in /  1032.4 hPa South 1.0 mph /  1.6 km/h 5.0 mph /  8 km/h 65 % 0.00 in /  0 mm 424 W/m2
10:23 54.1 °F /  12.3 °C 42.2 °F /  5.7 °C 30.49 in /  1032.4 hPa WSW 2.0 mph /  3.2 km/h 6.0 mph /  9.7 km/h 64 % 0.00 in /  0 mm 543 W/m2
10:28 54.9 °F /  12.7 °C 42.5 °F /  5.8 °C 30.48 in /  1032.1 hPa WNW 3.0 mph /  4.8 km/h 7.0 mph /  11.3 km/h 63 % 0.00 in /  0 mm 501 W/m2
10:33 55.6 °F /  13.1 °C 43.2 °F /  6.2 °C 30.49 in /  1032.4 hPa WSW 4.0 mph /  6.4 km/h 10.0 mph /  16.1 km/h 63 % 0.00 in /  0 mm 501 W/m2
10:38 55.6 °F /  13.1 °C 42.8 °F /  6 °C 30.48 in /  1032.1 hPa South 4.0 mph /  6.4 km/h 10.0 mph /  16.1 km/h 62 % 0.00 in /  0 mm 510 W/m2
10:43 55.8 °F /  13.2 °C 42.1 °F /  5.6 °C 30.48 in /  1032.1 hPa SW 3.0 mph /  4.8 km/h 7.0 mph /  11.3 km/h 60 % 0.00 in /  0 mm 563 W/m2
10:49 55.9 °F /  13.3 °C 41.8 °F /  5.4 °C 30.48 in /  1032.1 hPa West 4.0 mph /  6.4 km/h 11.0 mph /  17.7 km/h 59 % 0.00 in /  0 mm 561 W/m2
10:54 56.5 °F /  13.6 °C 43.2 °F /  6.2 °C 30.48 in /  1032.1 hPa West 5.0 mph /  8 km/h 11.0 mph /  17.7 km/h 61 % 0.00 in /  0 mm 580 W/m2
10:59 57.2 °F /  14 °C 43.0 °F /  6.1 °C 30.48 in /  1032.1 hPa WNW 6.0 mph /  9.7 km/h 12.0 mph /  19.3 km/h 59 % 0.00 in /  0 mm 564 W/m2
11:03 57.6 °F /  14.2 °C 42.4 °F /  5.8 °C 30.48 in /  1032.1 hPa WNW 7.0 mph /  11.3 km/h 12.0 mph /  19.3 km/h 57 % 0.00 in /  0 mm 559 W/m2
11:09 57.6 °F /  14.2 °C 42.9 °F /  6.1 °C 30.48 in /  1032.1 hPa WNW 7.0 mph /  11.3 km/h 13.0 mph /  20.9 km/h 58 % 0.00 in /  0 mm 564 W/m2
11:14 57.7 °F /  14.3 °C 42.6 °F /  5.9 °C 30.48 in /  1032.1 hPa WNW 7.0 mph /  11.3 km/h 13.0 mph /  20.9 km/h 57 % 0.00 in /  0 mm 561 W/m2
11:19 57.7 °F /  14.3 °C 41.7 °F /  5.4 °C 30.48 in /  1032.1 hPa West 8.0 mph /  12.9 km/h 13.0 mph /  20.9 km/h 55 % 0.00 in /  0 mm 585 W/m2
11:24 57.9 °F /  14.4 °C 42.8 °F /  6 °C 30.48 in /  1032.1 hPa West 8.0 mph /  12.9 km/h 13.0 mph /  20.9 km/h 57 % 0.00 in /  0 mm 610 W/m2
11:29 58.3 °F /  14.6 °C 42.2 °F /  5.7 °C 30.48 in /  1032.1 hPa WNW 6.0 mph /  9.7 km/h 11.0 mph /  17.7 km/h 55 % 0.00 in /  0 mm 596 W/m2
11:34 58.5 °F /  14.7 °C 42.8 °F /  6 °C 30.48 in /  1032.1 hPa WNW 7.0 mph /  11.3 km/h 15.0 mph /  24.1 km/h 56 % 0.00 in /  0 mm 605 W/m2
11:39 58.6 °F /  14.8 °C 43.0 °F /  6.1 °C 30.47 in /  1031.7 hPa WNW 8.0 mph /  12.9 km/h 15.0 mph /  24.1 km/h 56 % 0.00 in /  0 mm 643 W/m2
11:43 58.7 °F /  14.8 °C 42.1 °F /  5.6 °C 30.47 in /  1031.7 hPa WNW 7.0 mph /  11.3 km/h -999.0 mph /  -1607.7 km/h 54 % 0.00 in /  0 mm 634 W/m2
11:44 59.2 °F /  15.1 °C 43.0 °F /  6.1 °C 30.47 in /  1031.7 hPa WNW 7.0 mph /  11.3 km/h 12.0 mph /  19.3 km/h 55 % 0.00 in /  0 mm 666 W/m2
11:48 58.7 °F /  14.8 °C 42.1 °F /  5.6 °C 30.47 in /  1031.7 hPa WNW 7.0 mph /  11.3 km/h -999.0 mph /  -1607.7 km/h 54 % 0.00 in /  0 mm 634 W/m2
11:49 59.2 °F /  15.1 °C 42.0 °F /  5.6 °C 30.47 in /  1031.7 hPa WNW 7.0 mph /  11.3 km/h 12.0 mph /  19.3 km/h 53 % 0.00 in /  0 mm 628 W/m2
11:53 59.4 °F /  15.2 °C 41.3 °F /  5.2 °C 30.46 in /  1031.4 hPa West 8.0 mph /  12.9 km/h -999.0 mph /  -1607.7 km/h 51 % 0.00 in /  0 mm 640 W/m2
11:54 59.4 °F /  15.2 °C 42.7 °F /  5.9 °C 30.47 in /  1031.7 hPa West 8.0 mph /  12.9 km/h 12.0 mph /  19.3 km/h 54 % 0.00 in /  0 mm 643 W/m2
11:58 59.4 °F /  15.2 °C 41.3 °F /  5.2 °C 30.46 in /  1031.4 hPa West 8.0 mph /  12.9 km/h -999.0 mph /  -1607.7 km/h 51 % 0.00 in /  0 mm 640 W/m2
11:59 59.5 °F /  15.3 °C 41.4 °F /  5.2 °C 30.47 in /  1031.7 hPa West 8.0 mph /  12.9 km/h 15.0 mph /  24.1 km/h 51 % 0.00 in /  0 mm 638 W/m2
12:03 59.4 °F /  15.2 °C 41.3 °F /  5.2 °C 30.46 in /  1031.4 hPa West 8.0 mph /  12.9 km/h -999.0 mph /  -1607.7 km/h 51 % 0.00 in /  0 mm 640 W/m2
12:04 59.5 °F /  15.3 °C 41.4 °F /  5.2 °C 30.46 in /  1031.4 hPa West 8.0 mph /  12.9 km/h 15.0 mph /  24.1 km/h 51 % 0.00 in /  0 mm 619 W/m2
12:08 59.8 °F /  15.4 °C 42.1 °F /  5.6 °C 30.46 in /  1031.4 hPa WNW 9.0 mph /  14.5 km/h -999.0 mph /  -1607.7 km/h 52 % 0.00 in /  0 mm 622 W/m2
12:13 59.8 °F /  15.4 °C 42.1 °F /  5.6 °C 30.46 in /  1031.4 hPa WNW 9.0 mph /  14.5 km/h -999.0 mph /  -1607.7 km/h 52 % 0.00 in /  0 mm 622 W/m2
12:18 59.8 °F /  15.4 °C 42.1 °F /  5.6 °C 30.46 in /  1031.4 hPa WNW 9.0 mph /  14.5 km/h -999.0 mph /  -1607.7 km/h 52 % 0.00 in /  0 mm 622 W/m2
12:23 60.2 °F /  15.7 °C 42.5 °F /  5.8 °C 30.45 in /  1031 hPa WNW 10.0 mph /  16.1 km/h -999.0 mph /  -1607.7 km/h 52 % 0.00 in /  0 mm 641 W/m2
12:28 60.2 °F /  15.7 °C 42.5 °F /  5.8 °C 30.45 in /  1031 hPa WNW 10.0 mph /  16.1 km/h -999.0 mph /  -1607.7 km/h 52 % 0.00 in /  0 mm 641 W/m2
12:33 60.2 °F /  15.7 °C 42.5 °F /  5.8 °C 30.45 in /  1031 hPa WNW 10.0 mph /  16.1 km/h -999.0 mph /  -1607.7 km/h 52 % 0.00 in /  0 mm 641 W/m2
12:38 60.4 °F /  15.8 °C 42.7 °F /  5.9 °C 30.44 in /  1030.7 hPa WNW 10.0 mph /  16.1 km/h -999.0 mph /  -1607.7 km/h 52 % 0.00 in /  0 mm 608 W/m2
12:43 60.4 °F /  15.8 °C 42.7 °F /  5.9 °C 30.44 in /  1030.7 hPa WNW 10.0 mph /  16.1 km/h -999.0 mph /  -1607.7 km/h 52 % 0.00 in /  0 mm 608 W/m2
12:48 60.4 °F /  15.8 °C 42.7 °F /  5.9 °C 30.44 in /  1030.7 hPa WNW 10.0 mph /  16.1 km/h -999.0 mph /  -1607.7 km/h 52 % 0.00 in /  0 mm 608 W/m2
12:53 60.4 °F /  15.8 °C 43.2 °F /  6.2 °C 30.44 in /  1030.7 hPa WNW 9.0 mph /  14.5 km/h -999.0 mph /  -1607.7 km/h 53 % 0.00 in /  0 mm 600 W/m2
12:58 60.4 °F /  15.8 °C 43.2 °F /  6.2 °C 30.44 in /  1030.7 hPa WNW 9.0 mph /  14.5 km/h -999.0 mph /  -1607.7 km/h 53 % 0.00 in /  0 mm 600 W/m2
13:03 60.4 °F /  15.8 °C 43.2 °F /  6.2 °C 30.44 in /  1030.7 hPa WNW 9.0 mph /  14.5 km/h -999.0 mph /  -1607.7 km/h 53 % 0.00 in /  0 mm 600 W/m2
13:08 60.5 °F /  15.8 °C 43.3 °F /  6.3 °C 30.43 in /  1030.4 hPa WNW 7.0 mph /  11.3 km/h -999.0 mph /  -1607.7 km/h 53 % 0.00 in /  0 mm 573 W/m2
13:13 60.5 °F /  15.8 °C 43.3 °F /  6.3 °C 30.43 in /  1030.4 hPa WNW 7.0 mph /  11.3 km/h -999.0 mph /  -1607.7 km/h 53 % 0.00 in /  0 mm 573 W/m2
13:18 60.5 °F /  15.8 °C 43.3 °F /  6.3 °C 30.43 in /  1030.4 hPa WNW 7.0 mph /  11.3 km/h -999.0 mph /  -1607.7 km/h 53 % 0.00 in /  0 mm 573 W/m2
13:23 60.9 °F /  16.1 °C 43.6 °F /  6.4 °C 30.43 in /  1030.4 hPa NW 7.0 mph /  11.3 km/h -999.0 mph /  -1607.7 km/h 53 % 0.00 in /  0 mm 556 W/m2
13:28 60.9 °F /  16.1 °C 43.6 °F /  6.4 °C 30.43 in /  1030.4 hPa NW 7.0 mph /  11.3 km/h -999.0 mph /  -1607.7 km/h 53 % 0.00 in /  0 mm 556 W/m2
13:33 60.9 °F /  16.1 °C 43.6 °F /  6.4 °C 30.43 in /  1030.4 hPa NW 7.0 mph /  11.3 km/h -999.0 mph /  -1607.7 km/h 53 % 0.00 in /  0 mm 556 W/m2
13:38 61.0 °F /  16.1 °C 43.2 °F /  6.2 °C 30.42 in /  1030 hPa NW 7.0 mph /  11.3 km/h -999.0 mph /  -1607.7 km/h 52 % 0.00 in /  0 mm 529 W/m2
13:43 61.0 °F /  16.1 °C 43.2 °F /  6.2 °C 30.42 in /  1030 hPa NW 7.0 mph /  11.3 km/h -999.0 mph /  -1607.7 km/h 52 % 0.00 in /  0 mm 529 W/m2
13:48 61.0 °F /  16.1 °C 43.2 °F /  6.2 °C 30.42 in /  1030 hPa NW 7.0 mph /  11.3 km/h -999.0 mph /  -1607.7 km/h 52 % 0.00 in /  0 mm 529 W/m2
13:53 61.3 °F /  16.3 °C 44.0 °F /  6.7 °C 30.42 in /  1030 hPa NW 8.0 mph /  12.9 km/h -999.0 mph /  -1607.7 km/h 53 % 0.00 in /  0 mm 505 W/m2
13:58 61.3 °F /  16.3 °C 44.0 °F /  6.7 °C 30.42 in /  1030 hPa NW 8.0 mph /  12.9 km/h -999.0 mph /  -1607.7 km/h 53 % 0.00 in /  0 mm 505 W/m2
14:03 61.3 °F /  16.3 °C 44.0 °F /  6.7 °C 30.42 in /  1030 hPa NW 8.0 mph /  12.9 km/h -999.0 mph /  -1607.7 km/h 53 % 0.00 in /  0 mm 505 W/m2
14:08 61.7 °F /  16.5 °C 43.9 °F /  6.6 °C 30.42 in /  1030 hPa WNW 9.0 mph /  14.5 km/h -999.0 mph /  -1607.7 km/h 52 % 0.00 in /  0 mm 491 W/m2
14:13 61.7 °F /  16.5 °C 43.9 °F /  6.6 °C 30.42 in /  1030 hPa WNW 9.0 mph /  14.5 km/h -999.0 mph /  -1607.7 km/h 52 % 0.00 in /  0 mm 491 W/m2
14:18 61.7 °F /  16.5 °C 43.9 °F /  6.6 °C 30.42 in /  1030 hPa WNW 9.0 mph /  14.5 km/h -999.0 mph /  -1607.7 km/h 52 % 0.00 in /  0 mm 491 W/m2
14:23 61.5 °F /  16.4 °C 45.2 °F /  7.3 °C 30.41 in /  1029.7 hPa WNW 9.0 mph /  14.5 km/h -999.0 mph /  -1607.7 km/h 55 % 0.00 in /  0 mm 458 W/m2
14:28 61.5 °F /  16.4 °C 45.2 °F /  7.3 °C 30.41 in /  1029.7 hPa WNW 9.0 mph /  14.5 km/h -999.0 mph /  -1607.7 km/h 55 % 0.00 in /  0 mm 458 W/m2
14:33 61.5 °F /  16.4 °C 45.2 °F /  7.3 °C 30.41 in /  1029.7 hPa WNW 9.0 mph /  14.5 km/h -999.0 mph /  -1607.7 km/h 55 % 0.00 in /  0 mm 458 W/m2
14:38 61.4 °F /  16.3 °C 44.6 °F /  7 °C 30.41 in /  1029.7 hPa WNW 10.0 mph /  16.1 km/h -999.0 mph /  -1607.7 km/h 54 % 0.00 in /  0 mm 445 W/m2
14:43 61.4 °F /  16.3 °C 44.6 °F /  7 °C 30.41 in /  1029.7 hPa WNW 10.0 mph /  16.1 km/h -999.0 mph /  -1607.7 km/h 54 % 0.00 in /  0 mm 445 W/m2
14:48 61.4 °F /  16.3 °C 44.6 °F /  7 °C 30.41 in /  1029.7 hPa WNW 10.0 mph /  16.1 km/h -999.0 mph /  -1607.7 km/h 54 % 0.00 in /  0 mm 445 W/m2
14:53 61.2 °F /  16.2 °C 44.4 °F /  6.9 °C 30.41 in /  1029.7 hPa West 9.0 mph /  14.5 km/h -999.0 mph /  -1607.7 km/h 54 % 0.00 in /  0 mm 437 W/m2
14:58 61.2 °F /  16.2 °C 44.4 °F /  6.9 °C 30.41 in /  1029.7 hPa West 9.0 mph /  14.5 km/h -999.0 mph /  -1607.7 km/h 54 % 0.00 in /  0 mm 437 W/m2
15:03 61.2 °F /  16.2 °C 44.4 °F /  6.9 °C 30.41 in /  1029.7 hPa West 9.0 mph /  14.5 km/h -999.0 mph /  -1607.7 km/h 54 % 0.00 in /  0 mm 437 W/m2
15:08 61.1 °F /  16.2 °C 44.8 °F /  7.1 °C 30.41 in /  1029.7 hPa West 9.0 mph /  14.5 km/h -999.0 mph /  -1607.7 km/h 55 % 0.00 in /  0 mm 402 W/m2
15:13 61.1 °F /  16.2 °C 44.8 °F /  7.1 °C 30.41 in /  1029.7 hPa West 9.0 mph /  14.5 km/h -999.0 mph /  -1607.7 km/h 55 % 0.00 in /  0 mm 402 W/m2
15:18 61.1 °F /  16.2 °C 44.8 °F /  7.1 °C 30.41 in /  1029.7 hPa West 9.0 mph /  14.5 km/h -999.0 mph /  -1607.7 km/h 55 % 0.00 in /  0 mm 402 W/m2
15:23 61.5 °F /  16.4 °C 44.7 °F /  7.1 °C 30.40 in /  1029.3 hPa West 10.0 mph /  16.1 km/h -999.0 mph /  -1607.7 km/h 54 % 0.00 in /  0 mm 371 W/m2
15:28 61.5 °F /  16.4 °C 44.7 °F /  7.1 °C 30.40 in /  1029.3 hPa West 10.0 mph /  16.1 km/h -999.0 mph /  -1607.7 km/h 54 % 0.00 in /  0 mm 371 W/m2
15:33 61.5 °F /  16.4 °C 44.7 °F /  7.1 °C 30.40 in /  1029.3 hPa West 10.0 mph /  16.1 km/h -999.0 mph /  -1607.7 km/h 54 % 0.00 in /  0 mm 371 W/m2
15:38 61.7 °F /  16.5 °C 44.9 °F /  7.2 °C 30.39 in /  1029 hPa WSW 7.0 mph /  11.3 km/h -999.0 mph /  -1607.7 km/h 54 % 0.00 in /  0 mm 317 W/m2
15:43 61.7 °F /  16.5 °C 44.9 °F /  7.2 °C 30.39 in /  1029 hPa WSW 7.0 mph /  11.3 km/h -999.0 mph /  -1607.7 km/h 54 % 0.00 in /  0 mm 317 W/m2
15:48 61.7 °F /  16.5 °C 44.9 °F /  7.2 °C 30.39 in /  1029 hPa WSW 7.0 mph /  11.3 km/h -999.0 mph /  -1607.7 km/h 54 % 0.00 in /  0 mm 317 W/m2
15:53 61.5 °F /  16.4 °C 45.2 °F /  7.3 °C 30.39 in /  1029 hPa West 8.0 mph /  12.9 km/h -999.0 mph /  -1607.7 km/h 55 % 0.00 in /  0 mm 283 W/m2
15:58 61.5 °F /  16.4 °C 45.2 °F /  7.3 °C 30.39 in /  1029 hPa West 8.0 mph /  12.9 km/h -999.0 mph /  -1607.7 km/h 55 % 0.00 in /  0 mm 283 W/m2
16:03 61.5 °F /  16.4 °C 45.2 °F /  7.3 °C 30.39 in /  1029 hPa West 8.0 mph /  12.9 km/h -999.0 mph /  -1607.7 km/h 55 % 0.00 in /  0 mm 283 W/m2
16:08 60.9 °F /  16.1 °C 45.6 °F /  7.6 °C 30.39 in /  1029 hPa West 7.0 mph /  11.3 km/h -999.0 mph /  -1607.7 km/h 57 % 0.00 in /  0 mm 242 W/m2
16:13 60.9 °F /  16.1 °C 45.6 °F /  7.6 °C 30.39 in /  1029 hPa West 7.0 mph /  11.3 km/h -999.0 mph /  -1607.7 km/h 57 % 0.00 in /  0 mm 242 W/m2
16:18 60.9 °F /  16.1 °C 45.6 °F /  7.6 °C 30.39 in /  1029 hPa West 7.0 mph /  11.3 km/h -999.0 mph /  -1607.7 km/h 57 % 0.00 in /  0 mm 242 W/m2
16:23 60.8 °F /  16 °C 45.5 °F /  7.5 °C 30.39 in /  1029 hPa West 8.0 mph /  12.9 km/h -999.0 mph /  -1607.7 km/h 57 % 0.00 in /  0 mm 198 W/m2
16:28 60.8 °F /  16 °C 45.5 °F /  7.5 °C 30.39 in /  1029 hPa West 8.0 mph /  12.9 km/h -999.0 mph /  -1607.7 km/h 57 % 0.00 in /  0 mm 198 W/m2
16:33 60.8 °F /  16 °C 45.5 °F /  7.5 °C 30.39 in /  1029 hPa West 8.0 mph /  12.9 km/h -999.0 mph /  -1607.7 km/h 57 % 0.00 in /  0 mm 198 W/m2
16:38 60.2 °F /  15.7 °C 45.8 °F /  7.7 °C 30.38 in /  1028.7 hPa WSW 6.0 mph /  9.7 km/h -999.0 mph /  -1607.7 km/h 59 % 0.00 in /  0 mm 162 W/m2
16:43 60.2 °F /  15.7 °C 45.8 °F /  7.7 °C 30.38 in /  1028.7 hPa WSW 6.0 mph /  9.7 km/h -999.0 mph /  -1607.7 km/h 59 % 0.00 in /  0 mm 162 W/m2
16:48 60.2 °F /  15.7 °C 45.8 °F /  7.7 °C 30.38 in /  1028.7 hPa WSW 6.0 mph /  9.7 km/h -999.0 mph /  -1607.7 km/h 59 % 0.00 in /  0 mm 162 W/m2
16:53 59.6 °F /  15.3 °C 46.1 °F /  7.8 °C 30.38 in /  1028.7 hPa WSW 6.0 mph /  9.7 km/h -999.0 mph /  -1607.7 km/h 61 % 0.00 in /  0 mm 118 W/m2
16:58 59.6 °F /  15.3 °C 46.1 °F /  7.8 °C 30.38 in /  1028.7 hPa WSW 6.0 mph /  9.7 km/h -999.0 mph /  -1607.7 km/h 61 % 0.00 in /  0 mm 118 W/m2
17:03 59.6 °F /  15.3 °C 46.1 °F /  7.8 °C 30.38 in /  1028.7 hPa WSW 6.0 mph /  9.7 km/h -999.0 mph /  -1607.7 km/h 61 % 0.00 in /  0 mm 118 W/m2
17:08 59.1 °F /  15.1 °C 46.1 °F /  7.8 °C 30.38 in /  1028.7 hPa West 5.0 mph /  8 km/h -999.0 mph /  -1607.7 km/h 62 % 0.00 in /  0 mm 81 W/m2
17:13 59.1 °F /  15.1 °C 46.1 °F /  7.8 °C 30.38 in /  1028.7 hPa West 5.0 mph /  8 km/h -999.0 mph /  -1607.7 km/h 62 % 0.00 in /  0 mm 81 W/m2
17:18 59.1 °F /  15.1 °C 46.1 °F /  7.8 °C 30.38 in /  1028.7 hPa West 5.0 mph /  8 km/h -999.0 mph /  -1607.7 km/h 62 % 0.00 in /  0 mm 81 W/m2
17:23 58.6 °F /  14.8 °C 46.0 °F /  7.8 °C 30.38 in /  1028.7 hPa West 3.0 mph /  4.8 km/h -999.0 mph /  -1607.7 km/h 63 % 0.00 in /  0 mm 58 W/m2
17:28 58.6 °F /  14.8 °C 46.0 °F /  7.8 °C 30.38 in /  1028.7 hPa West 3.0 mph /  4.8 km/h -999.0 mph /  -1607.7 km/h 63 % 0.00 in /  0 mm 58 W/m2
17:33 58.6 °F /  14.8 °C 46.0 °F /  7.8 °C 30.38 in /  1028.7 hPa West 3.0 mph /  4.8 km/h -999.0 mph /  -1607.7 km/h 63 % 0.00 in /  0 mm 58 W/m2
17:38 58.0 °F /  14.4 °C 45.9 °F /  7.7 °C 30.38 in /  1028.7 hPa WSW 4.0 mph /  6.4 km/h -999.0 mph /  -1607.7 km/h 64 % 0.00 in /  0 mm 33 W/m2
17:43 58.0 °F /  14.4 °C 45.9 °F /  7.7 °C 30.38 in /  1028.7 hPa WSW 4.0 mph /  6.4 km/h -999.0 mph /  -1607.7 km/h 64 % 0.00 in /  0 mm 33 W/m2
17:45 58.0 °F /  14.4 °C 45.9 °F /  7.7 °C 30.38 in /  1028.7 hPa WSW 8.0 mph /  12.9 km/h 8.0 mph /  12.9 km/h 64 % 0.00 in /  0 mm 33 W/m2
17:48 58.0 °F /  14.4 °C 45.9 °F /  7.7 °C 30.38 in /  1028.7 hPa WSW 4.0 mph /  6.4 km/h -999.0 mph /  -1607.7 km/h 64 % 0.00 in /  0 mm 33 W/m2
17:53 57.4 °F /  14.1 °C 45.7 °F /  7.6 °C 30.38 in /  1028.7 hPa WSW 1.0 mph /  1.6 km/h -999.0 mph /  -1607.7 km/h 65 % 0.00 in /  0 mm 18 W/m2
17:58 57.4 °F /  14.1 °C 45.7 °F /  7.6 °C 30.38 in /  1028.7 hPa WSW 1.0 mph /  1.6 km/h -999.0 mph /  -1607.7 km/h 65 % 0.00 in /  0 mm 18 W/m2
18:03 57.0 °F /  13.9 °C 45.8 °F /  7.7 °C 30.38 in /  1028.7 hPa Calm     66 % 0.00 in /  0 mm 12 W/m2
18:30 55.9 °F /  13.3 °C 45.5 °F /  7.5 °C 30.38 in /  1028.7 hPa WSW 2.0 mph /  3.2 km/h 2.0 mph /  3.2 km/h 68 % 0.00 in /  0 mm 0 W/m2
18:40 54.7 °F /  12.6 °C 44.7 °F /  7.1 °C 30.38 in /  1028.7 hPa Calm     69 % 0.00 in /  0 mm 0 W/m2
18:51 54.0 °F /  12.2 °C 44.8 °F /  7.1 °C 30.38 in /  1028.7 hPa Calm     71 % 0.00 in /  0 mm 0 W/m2
18:56 53.2 °F /  11.8 °C 44.4 °F /  6.9 °C 30.38 in /  1028.7 hPa Calm     72 % 0.00 in /  0 mm 0 W/m2
19:01 52.9 °F /  11.6 °C 44.5 °F /  6.9 °C 30.37 in /  1028.3 hPa Calm   2.0 mph /  3.2 km/h 73 % 0.00 in /  0 mm 0 W/m2
19:06 52.7 °F /  11.5 °C 44.6 °F /  7 °C 30.37 in /  1028.3 hPa Calm   2.0 mph /  3.2 km/h 74 % 0.00 in /  0 mm 0 W/m2
19:12 52.5 °F /  11.4 °C 44.5 °F /  6.9 °C 30.37 in /  1028.3 hPa Calm   2.0 mph /  3.2 km/h 74 % 0.00 in /  0 mm 0 W/m2
19:17 52.3 °F /  11.3 °C 44.3 °F /  6.8 °C 30.37 in /  1028.3 hPa Calm   1.0 mph /  1.6 km/h 74 % 0.00 in /  0 mm 0 W/m2
19:22 52.0 °F /  11.1 °C 43.9 °F /  6.6 °C 30.37 in /  1028.3 hPa Calm     74 % 0.00 in /  0 mm 0 W/m2
19:27 51.6 °F /  10.9 °C 44.0 °F /  6.7 °C 30.37 in /  1028.3 hPa Calm   2.0 mph /  3.2 km/h 75 % 0.00 in /  0 mm 0 W/m2
19:32 51.4 °F /  10.8 °C 43.8 °F /  6.6 °C 30.37 in /  1028.3 hPa Calm   2.0 mph /  3.2 km/h 75 % 0.00 in /  0 mm 0 W/m2
19:37 51.4 °F /  10.8 °C 44.5 °F /  6.9 °C 30.36 in /  1028 hPa Calm   2.0 mph /  3.2 km/h 77 % 0.00 in /  0 mm 0 W/m2
19:42 51.3 °F /  10.7 °C 44.3 °F /  6.8 °C 30.37 in /  1028.3 hPa Calm   2.0 mph /  3.2 km/h 77 % 0.00 in /  0 mm 0 W/m2
19:47 51.1 °F /  10.6 °C 44.1 °F /  6.7 °C 30.37 in /  1028.3 hPa Calm   1.0 mph /  1.6 km/h 77 % 0.00 in /  0 mm 0 W/m2
19:52 50.7 °F /  10.4 °C 43.8 °F /  6.6 °C 30.37 in /  1028.3 hPa Calm   2.0 mph /  3.2 km/h 77 % 0.00 in /  0 mm 0 W/m2
19:57 50.4 °F /  10.2 °C 43.8 °F /  6.6 °C 30.36 in /  1028 hPa Calm   2.0 mph /  3.2 km/h 78 % 0.00 in /  0 mm 0 W/m2
20:02 49.8 °F /  9.9 °C 43.2 °F /  6.2 °C 30.36 in /  1028 hPa Calm   2.0 mph /  3.2 km/h 78 % 0.00 in /  0 mm 0 W/m2
20:07 49.6 °F /  9.8 °C 43.4 °F /  6.3 °C 30.36 in /  1028 hPa WSW 1.0 mph /  1.6 km/h 4.0 mph /  6.4 km/h 79 % 0.00 in /  0 mm 0 W/m2
20:12 49.5 °F /  9.7 °C 43.5 °F /  6.4 °C 30.36 in /  1028 hPa WSW 1.0 mph /  1.6 km/h 4.0 mph /  6.4 km/h 80 % 0.00 in /  0 mm 0 W/m2
20:17 49.3 °F /  9.6 °C 43.4 °F /  6.3 °C 30.36 in /  1028 hPa Calm   2.0 mph /  3.2 km/h 80 % 0.00 in /  0 mm 0 W/m2
20:22 49.1 °F /  9.5 °C 43.2 °F /  6.2 °C 30.36 in /  1028 hPa Calm   2.0 mph /  3.2 km/h 80 % 0.00 in /  0 mm 0 W/m2
20:27 48.9 °F /  9.4 °C 43.3 °F /  6.3 °C 30.35 in /  1027.7 hPa Calm     81 % 0.00 in /  0 mm 0 W/m2
20:32 48.7 °F /  9.3 °C 43.2 °F /  6.2 °C 30.35 in /  1027.7 hPa Calm     81 % 0.00 in /  0 mm 0 W/m2
20:37 48.6 °F /  9.2 °C 43.3 °F /  6.3 °C 30.35 in /  1027.7 hPa Calm     82 % 0.00 in /  0 mm 0 W/m2
20:42 48.4 °F /  9.1 °C 43.1 °F /  6.2 °C 30.35 in /  1027.7 hPa Calm     82 % 0.00 in /  0 mm 0 W/m2
20:47 48.0 °F /  8.9 °C 42.8 °F /  6 °C 30.35 in /  1027.7 hPa Calm   1.0 mph /  1.6 km/h 82 % 0.00 in /  0 mm 0 W/m2
20:52 47.8 °F /  8.8 °C 42.9 °F /  6.1 °C 30.34 in /  1027.3 hPa Calm   2.0 mph /  3.2 km/h 83 % 0.00 in /  0 mm 0 W/m2
20:57 47.8 °F /  8.8 °C 43.2 °F /  6.2 °C 30.34 in /  1027.3 hPa WSW 1.0 mph /  1.6 km/h 6.0 mph /  9.7 km/h 84 % 0.00 in /  0 mm 0 W/m2
21:02 47.8 °F /  8.8 °C 43.2 °F /  6.2 °C 30.35 in /  1027.7 hPa WSW 1.0 mph /  1.6 km/h 6.0 mph /  9.7 km/h 84 % 0.00 in /  0 mm 0 W/m2
21:07 48.0 °F /  8.9 °C 43.4 °F /  6.3 °C 30.35 in /  1027.7 hPa Calm   2.0 mph /  3.2 km/h 84 % 0.00 in /  0 mm 0 W/m2
21:12 48.0 °F /  8.9 °C 43.4 °F /  6.3 °C 30.35 in /  1027.7 hPa Calm   3.0 mph /  4.8 km/h 84 % 0.00 in /  0 mm 0 W/m2
21:17 48.4 °F /  9.1 °C 43.8 °F /  6.6 °C 30.34 in /  1027.3 hPa Calm   5.0 mph /  8 km/h 84 % 0.00 in /  0 mm 0 W/m2
21:22 48.4 °F /  9.1 °C 43.8 °F /  6.6 °C 30.34 in /  1027.3 hPa Calm   5.0 mph /  8 km/h 84 % 0.00 in /  0 mm 0 W/m2
21:27 48.4 °F /  9.1 °C 43.5 °F /  6.4 °C 30.34 in /  1027.3 hPa SW 1.0 mph /  1.6 km/h 4.0 mph /  6.4 km/h 83 % 0.00 in /  0 mm 0 W/m2
21:32 48.4 °F /  9.1 °C 43.5 °F /  6.4 °C 30.34 in /  1027.3 hPa WSW 2.0 mph /  3.2 km/h 6.0 mph /  9.7 km/h 83 % 0.00 in /  0 mm 0 W/m2
21:37 48.4 °F /  9.1 °C 43.5 °F /  6.4 °C 30.34 in /  1027.3 hPa WSW 3.0 mph /  4.8 km/h 6.0 mph /  9.7 km/h 83 % 0.00 in /  0 mm 0 W/m2
21:42 48.4 °F /  9.1 °C 43.8 °F /  6.6 °C 30.34 in /  1027.3 hPa West 4.0 mph /  6.4 km/h 8.0 mph /  12.9 km/h 84 % 0.00 in /  0 mm 0 W/m2
21:47 48.6 °F /  9.2 °C 43.9 °F /  6.6 °C 30.34 in /  1027.3 hPa West 5.0 mph /  8 km/h 8.0 mph /  12.9 km/h 84 % 0.00 in /  0 mm 0 W/m2
21:52 48.7 °F /  9.3 °C 44.1 °F /  6.7 °C 30.34 in /  1027.3 hPa West 6.0 mph /  9.7 km/h 8.0 mph /  12.9 km/h 84 % 0.00 in /  0 mm 0 W/m2
21:57 49.1 °F /  9.5 °C 44.5 °F /  6.9 °C 30.33 in /  1027 hPa WSW 6.0 mph /  9.7 km/h 8.0 mph /  12.9 km/h 84 % 0.00 in /  0 mm 0 W/m2
22:02 49.5 °F /  9.7 °C 44.5 °F /  6.9 °C 30.33 in /  1027 hPa WSW 5.0 mph /  8 km/h 9.0 mph /  14.5 km/h 83 % 0.00 in /  0 mm 0 W/m2
22:07 49.6 °F /  9.8 °C 44.4 °F /  6.9 °C 30.33 in /  1027 hPa WSW 5.0 mph /  8 km/h 9.0 mph /  14.5 km/h 82 % 0.00 in /  0 mm 0 W/m2
22:12 49.8 °F /  9.9 °C 44.5 °F /  6.9 °C 30.33 in /  1027 hPa WSW 6.0 mph /  9.7 km/h 10.0 mph /  16.1 km/h 82 % 0.00 in /  0 mm 0 W/m2
22:13 50.0 °F /  10 °C 44.7 °F /  7.1 °C 30.33 in /  1027 hPa WSW 7.0 mph /  11.3 km/h 10.0 mph /  16.1 km/h 82 % 0.00 in /  0 mm 0 W/m2
22:18 50.4 °F /  10.2 °C 45.1 °F /  7.3 °C 30.33 in /  1027 hPa SW 8.0 mph /  12.9 km/h 13.0 mph /  20.9 km/h 82 % 0.00 in /  0 mm 0 W/m2
22:23 50.7 °F /  10.4 °C 45.1 °F /  7.3 °C 30.33 in /  1027 hPa SW 8.0 mph /  12.9 km/h 13.0 mph /  20.9 km/h 81 % 0.00 in /  0 mm 0 W/m2
22:28 50.9 °F /  10.5 °C 44.9 °F /  7.2 °C 30.33 in /  1027 hPa SW 8.0 mph /  12.9 km/h 13.0 mph /  20.9 km/h 80 % 0.00 in /  0 mm 0 W/m2
22:33 50.9 °F /  10.5 °C 44.9 °F /  7.2 °C 30.33 in /  1027 hPa SW 7.0 mph /  11.3 km/h 11.0 mph /  17.7 km/h 80 % 0.00 in /  0 mm 0 W/m2
22:38 51.1 °F /  10.6 °C 45.1 °F /  7.3 °C 30.32 in /  1026.6 hPa WSW 6.0 mph /  9.7 km/h 11.0 mph /  17.7 km/h 80 % 0.00 in /  0 mm 0 W/m2
22:43 50.9 °F /  10.5 °C 44.9 °F /  7.2 °C 30.32 in /  1026.6 hPa WSW 5.0 mph /  8 km/h 9.0 mph /  14.5 km/h 80 % 0.00 in /  0 mm 0 W/m2
22:48 50.7 °F /  10.4 °C 44.8 °F /  7.1 °C 30.32 in /  1026.6 hPa WSW 3.0 mph /  4.8 km/h 9.0 mph /  14.5 km/h 80 % 0.00 in /  0 mm 0 W/m2
22:53 50.5 °F /  10.3 °C 44.6 °F /  7 °C 30.32 in /  1026.6 hPa SSW 2.0 mph /  3.2 km/h 10.0 mph /  16.1 km/h 80 % 0.00 in /  0 mm 0 W/m2
22:58 50.4 °F /  10.2 °C 44.4 °F /  6.9 °C 30.32 in /  1026.6 hPa South 3.0 mph /  4.8 km/h 10.0 mph /  16.1 km/h 80 % 0.00 in /  0 mm 0 W/m2
23:03 50.2 °F /  10.1 °C 44.2 °F /  6.8 °C 30.32 in /  1026.6 hPa South 1.0 mph /  1.6 km/h 6.0 mph /  9.7 km/h 80 % 0.00 in /  0 mm 0 W/m2
23:08 49.8 °F /  9.9 °C 43.9 °F /  6.6 °C 30.31 in /  1026.3 hPa SSW 1.0 mph /  1.6 km/h 5.0 mph /  8 km/h 80 % 0.00 in /  0 mm 0 W/m2
23:14 49.6 °F /  9.8 °C 44.0 °F /  6.7 °C 30.31 in /  1026.3 hPa SW 2.0 mph /  3.2 km/h 7.0 mph /  11.3 km/h 81 % 0.00 in /  0 mm 0 W/m2
23:19 49.5 °F /  9.7 °C 43.9 °F /  6.6 °C 30.31 in /  1026.3 hPa WSW 4.0 mph /  6.4 km/h 8.0 mph /  12.9 km/h 81 % 0.00 in /  0 mm 0 W/m2
23:24 49.6 °F /  9.8 °C 44.4 °F /  6.9 °C 30.31 in /  1026.3 hPa WSW 5.0 mph /  8 km/h 8.0 mph /  12.9 km/h 82 % 0.00 in /  0 mm 0 W/m2
23:29 50.0 °F /  10 °C 44.4 °F /  6.9 °C 30.31 in /  1026.3 hPa SW 5.0 mph /  8 km/h 8.0 mph /  12.9 km/h 81 % 0.00 in /  0 mm 0 W/m2
23:34 50.0 °F /  10 °C 44.4 °F /  6.9 °C 30.31 in /  1026.3 hPa SW 4.0 mph /  6.4 km/h 7.0 mph /  11.3 km/h 81 % 0.00 in /  0 mm 0 W/m2
23:39 50.2 °F /  10.1 °C 44.2 °F /  6.8 °C 30.31 in /  1026.3 hPa SW 3.0 mph /  4.8 km/h 6.0 mph /  9.7 km/h 80 % 0.00 in /  0 mm 0 W/m2
23:44 50.0 °F /  10 °C 44.1 °F /  6.7 °C 30.30 in /  1026 hPa SSW 1.0 mph /  1.6 km/h 5.0 mph /  8 km/h 80 % 0.00 in /  0 mm 0 W/m2
23:49 49.8 °F /  9.9 °C 43.9 °F /  6.6 °C 30.30 in /  1026 hPa Calm   4.0 mph /  6.4 km/h 80 % 0.00 in /  0 mm 0 W/m2
23:54 49.5 °F /  9.7 °C 43.9 °F /  6.6 °C 30.30 in /  1026 hPa South 1.0 mph /  1.6 km/h 4.0 mph /  6.4 km/h 81 % 0.00 in /  0 mm 0 W/m2
23:59 49.5 °F /  9.7 °C 43.9 °F /  6.6 °C 30.29 in /  1025.6 hPa South 1.0 mph /  1.6 km/h 5.0 mph /  8 km/h 81 % 0.00 in /  0 mm 0 W/m2
Delerius-Weather
Compliments of Weather Underground - 2.25 mb

Data updates at regular intervals.